»·PEaware :: WAT169 KSAN-KLAS

WAT169 :: KSAN-KLAS

FLIGHT INFORMATION

Flight Status: Arrived
Operator:
Walker Air Transport
More flights by this operator :: More flights under this callsign
Pilot: Marty P. (27464)
Aircraft: BOEING 737-800
(B738)
More flights by this aircraft type
Origin: KSAN San Diego Intl-Lindbergh
United States
Destination: KLAS McCarran Intl
United States
More flights between these airports :: More routes between these airports
Route: PADRZ2 CHKNN SEBBY YELAH MISEN KEPEC6
File this flight plan on PilotEdge
Remarks:
Altitude:
(Current/Filed)
27,000ft
Speed:
(Current/Filed)
480kts
Departed: 20-Jul-20 03:36 PM
Arrived: 20-Jul-20 04:23 PM
Distance/Time
Traveled:
225nm/0:47
Distance/Time
To Go:
Arrived

Flight Plot

Page will automatically refresh every two minutes.

Flight plan parsing failed; only flown route is shown


Map Options




Map Legend


Flown Route
Filed Route
Departure Airport
Arrival Airport
Navaid (VOR, NDB)
Fix

Horizontal Profiles

Position Reports

Time Latitude Longitude Heading Altitude Ground
Speed
20-Jul-20 15:15 32.732371 -117.202816 203 27ft 0kts
20-Jul-20 15:16 32.732372 -117.202816 203 27ft 0kts
20-Jul-20 15:17 32.732372 -117.202816 203 27ft 0kts
20-Jul-20 15:18 32.732372 -117.202816 203 27ft 0kts
20-Jul-20 15:19 32.732372 -117.202816 203 27ft 0kts
20-Jul-20 15:20 32.732372 -117.202816 203 27ft 0kts
20-Jul-20 15:21 32.732372 -117.202816 203 27ft 0kts
20-Jul-20 15:22 32.732372 -117.202816 203 27ft 0kts
20-Jul-20 15:23 32.732372 -117.202816 203 27ft 0kts
20-Jul-20 15:24 32.732817 -117.202763 184 27ft 2kts
20-Jul-20 15:25 32.732924 -117.202520 346 27ft 0kts
20-Jul-20 15:26 32.733639 -117.202737 346 27ft 0kts
20-Jul-20 15:27 32.733640 -117.202737 346 27ft 0kts
20-Jul-20 15:28 32.733831 -117.202745 4 27ft 5kts
20-Jul-20 15:29 32.735029 -117.200020 105 27ft 20kts
20-Jul-20 15:30 32.733542 -117.193855 105 27ft 18kts
20-Jul-20 15:31 32.732201 -117.188335 106 27ft 16kts
20-Jul-20 15:32 32.731028 -117.183472 106 27ft 14kts
20-Jul-20 15:33 32.729656 -117.177844 106 27ft 19kts
20-Jul-20 15:34 32.729531 -117.176758 76 27ft 2kts
20-Jul-20 15:35 32.733918 -117.191039 286 28ft 163kts
20-Jul-20 15:36 32.760142 -117.245668 302 2571ft 228kts
20-Jul-20 15:37 32.794373 -117.309817 304 6365ft 237kts
20-Jul-20 15:38 32.835516 -117.374104 307 10066ft 257kts
20-Jul-20 15:39 32.884366 -117.449780 307 12287ft 340kts
20-Jul-20 15:40 32.946764 -117.546790 307 15127ft 382kts
20-Jul-20 15:41 33.012164 -117.648873 308 18276ft 396kts
20-Jul-20 15:42 33.086759 -117.748334 317 21040ft 409kts
20-Jul-20 15:43 33.171975 -117.838492 318 23140ft 427kts
20-Jul-20 15:44 33.262768 -117.929070 320 25501ft 431kts
20-Jul-20 15:45 33.357012 -118.021067 319 27018ft 450kts
20-Jul-20 15:46 33.457244 -118.119155 320 27005ft 462kts
20-Jul-20 15:47 33.559995 -118.213321 327 27006ft 468kts
20-Jul-20 15:48 33.674959 -118.287131 333 26992ft 469kts
20-Jul-20 15:49 33.797521 -118.269434 42 26994ft 491kts
20-Jul-20 15:50 33.878385 -118.135787 52 26994ft 495kts
20-Jul-20 15:51 33.958125 -118.000999 52 26983ft 496kts
20-Jul-20 15:52 34.038135 -117.865571 52 26991ft 496kts
20-Jul-20 15:53 34.120444 -117.733157 48 26996ft 497kts
20-Jul-20 15:54 34.207741 -117.604894 48 26996ft 496kts
20-Jul-20 15:55 34.295577 -117.476066 48 26999ft 495kts
20-Jul-20 15:56 34.381753 -117.349384 48 27010ft 491kts
20-Jul-20 15:57 34.468273 -117.221811 49 27006ft 493kts
20-Jul-20 15:58 34.554987 -117.093477 49 27010ft 492kts
20-Jul-20 15:59 34.641756 -116.964599 49 26966ft 496kts
20-Jul-20 16:00 34.729209 -116.834221 49 26927ft 499kts
20-Jul-20 16:01 34.816447 -116.703679 49 26921ft 481kts
20-Jul-20 16:02 34.904465 -116.597435 38 26930ft 442kts
20-Jul-20 16:03 35.000774 -116.503096 37 26722ft 435kts
20-Jul-20 16:04 35.093481 -116.412008 41 24173ft 422kts
20-Jul-20 16:05 35.172037 -116.316327 45 23949ft 432kts
20-Jul-20 16:06 35.257555 -116.209499 45 22582ft 440kts
20-Jul-20 16:07 35.340931 -116.104827 45 19851ft 420kts
20-Jul-20 16:08 35.419717 -116.005456 46 18567ft 413kts
20-Jul-20 16:09 35.499428 -115.905203 45 16817ft 410kts
20-Jul-20 16:10 35.577128 -115.807306 46 14285ft 386kts
20-Jul-20 16:11 35.644768 -115.720462 46 12554ft 351kts
20-Jul-20 16:12 35.703331 -115.637369 59 11496ft 307kts
20-Jul-20 16:13 35.743338 -115.548299 61 10269ft 279kts
20-Jul-20 16:14 35.780090 -115.467089 61 8649ft 263kts
20-Jul-20 16:15 35.816601 -115.386057 61 7175ft 269kts
20-Jul-20 16:16 35.851775 -115.308378 61 7059ft 271kts
20-Jul-20 16:17 35.911704 -115.273254 2 6840ft 246kts
20-Jul-20 16:18 35.979486 -115.271295 1 6012ft 244kts
20-Jul-20 16:19 36.048141 -115.269450 2 5115ft 238kts
20-Jul-20 16:20 36.073203 -115.223785 87 3559ft 154kts
20-Jul-20 16:21 36.073581 -115.174550 89 2450ft 149kts
20-Jul-20 16:22 36.073967 -115.140244 63 2191ft 30kts
20-Jul-20 16:23 36.077042 -115.137914 0 2191ft 9kts
20-Jul-20 16:24 36.078152 -115.138130 308 2191ft 8kts
20-Jul-20 16:25 36.078267 -115.142791 269 2191ft 15kts
20-Jul-20 16:26 36.079356 -115.146022 337 2191ft 6kts
20-Jul-20 16:27 36.079624 -115.146165 336 2191ft 0kts
20-Jul-20 16:28 36.079624 -115.146165 336 2191ft 0kts
20-Jul-20 16:29 36.079624 -115.146165 336 2191ft 0kts

Navigation Log

Ident Type
Flight plan parsing failed, navigation log unavailable